sensor_id;sensor_type;location;lat;lon;timestamp;P1;durP1;ratioP1;P2;durP2;ratioP2
15012;SDS011;7603;49.432;11.418;2023-07-29T00:00:40;5.70;;;5.30;;
15012;SDS011;7603;49.432;11.418;2023-07-29T00:03:05;5.45;;;5.10;;
15012;SDS011;7603;49.432;11.418;2023-07-29T00:05:31;6.05;;;5.65;;
15012;SDS011;7603;49.432;11.418;2023-07-29T00:07:56;6.75;;;6.20;;
15012;SDS011;7603;49.432;11.418;2023-07-29T00:10:22;5.65;;;5.35;;
15012;SDS011;7603;49.432;11.418;2023-07-29T00:12:48;6.20;;;5.65;;
15012;SDS011;7603;49.432;11.418;2023-07-29T00:15:13;5.57;;;5.20;;
15012;SDS011;7603;49.432;11.418;2023-07-29T00:17:39;7.45;;;5.80;;
15012;SDS011;7603;49.432;11.418;2023-07-29T00:20:05;6.93;;;6.25;;
15012;SDS011;7603;49.432;11.418;2023-07-29T00:22:31;6.82;;;6.35;;
15012;SDS011;7603;49.432;11.418;2023-07-29T00:24:57;6.35;;;5.88;;
15012;SDS011;7603;49.432;11.418;2023-07-29T00:27:24;6.38;;;5.97;;
15012;SDS011;7603;49.432;11.418;2023-07-29T00:29:50;6.43;;;5.82;;
15012;SDS011;7603;49.432;11.418;2023-07-29T00:32:15;5.90;;;5.50;;
15012;SDS011;7603;49.432;11.418;2023-07-29T00:34:41;9.95;;;6.18;;
15012;SDS011;7603;49.432;11.418;2023-07-29T00:37:06;6.05;;;5.65;;
15012;SDS011;7603;49.432;11.418;2023-07-29T00:39:32;6.45;;;5.95;;
15012;SDS011;7603;49.432;11.418;2023-07-29T00:41:58;7.45;;;6.75;;
15012;SDS011;7603;49.432;11.418;2023-07-29T00:44:24;7.18;;;6.57;;
15012;SDS011;7603;49.432;11.418;2023-07-29T00:46:50;6.85;;;6.35;;
15012;SDS011;7603;49.432;11.418;2023-07-29T00:49:18;13.85;;;6.88;;
15012;SDS011;7603;49.432;11.418;2023-07-29T00:51:44;7.43;;;6.93;;
15012;SDS011;7603;49.432;11.418;2023-07-29T00:54:10;7.38;;;6.63;;
15012;SDS011;7603;49.432;11.418;2023-07-29T00:56:36;7.85;;;7.03;;
15012;SDS011;7603;49.432;11.418;2023-07-29T00:59:02;7.00;;;6.40;;
15012;SDS011;7603;49.432;11.418;2023-07-29T01:01:29;6.55;;;6.15;;
15012;SDS011;7603;49.432;11.418;2023-07-29T01:03:55;6.90;;;6.40;;
15012;SDS011;7603;49.432;11.418;2023-07-29T01:09:46;7.15;;;6.65;;
15012;SDS011;7603;49.432;11.418;2023-07-29T01:18:11;6.75;;;6.32;;
15012;SDS011;7603;49.432;11.418;2023-07-29T01:20:43;6.22;;;5.72;;
15012;SDS011;7603;49.432;11.418;2023-07-29T01:23:11;6.22;;;5.68;;
15012;SDS011;7603;49.432;11.418;2023-07-29T01:25:36;6.22;;;5.82;;
15012;SDS011;7603;49.432;11.418;2023-07-29T01:28:02;5.80;;;5.32;;
15012;SDS011;7603;49.432;11.418;2023-07-29T01:30:33;5.95;;;5.45;;
15012;SDS011;7603;49.432;11.418;2023-07-29T01:33:06;6.05;;;5.72;;
15012;SDS011;7603;49.432;11.418;2023-07-29T01:35:42;6.72;;;6.13;;
15012;SDS011;7603;49.432;11.418;2023-07-29T01:38:09;9.70;;;6.07;;
15012;SDS011;7603;49.432;11.418;2023-07-29T01:40:41;6.40;;;6.00;;
15012;SDS011;7603;49.432;11.418;2023-07-29T01:43:08;6.18;;;5.68;;
15012;SDS011;7603;49.432;11.418;2023-07-29T01:45:35;6.30;;;5.80;;
15012;SDS011;7603;49.432;11.418;2023-07-29T01:48:04;7.05;;;6.35;;
15012;SDS011;7603;49.432;11.418;2023-07-29T01:50:30;6.72;;;6.07;;
15012;SDS011;7603;49.432;11.418;2023-07-29T01:52:57;6.13;;;5.72;;
15012;SDS011;7603;49.432;11.418;2023-07-29T01:55:22;6.68;;;6.07;;
15012;SDS011;7603;49.432;11.418;2023-07-29T01:57:48;6.75;;;6.25;;
15012;SDS011;7603;49.432;11.418;2023-07-29T02:00:14;6.07;;;5.68;;
15012;SDS011;7603;49.432;11.418;2023-07-29T02:02:40;6.95;;;5.70;;
15012;SDS011;7603;49.432;11.418;2023-07-29T02:05:06;6.78;;;6.28;;
15012;SDS011;7603;49.432;11.418;2023-07-29T02:07:32;5.85;;;5.45;;
15012;SDS011;7603;49.432;11.418;2023-07-29T02:09:57;6.50;;;5.97;;
15012;SDS011;7603;49.432;11.418;2023-07-29T02:12:23;6.38;;;5.88;;
15012;SDS011;7603;49.432;11.418;2023-07-29T02:14:49;7.03;;;6.53;;
15012;SDS011;7603;49.432;11.418;2023-07-29T02:17:15;6.68;;;6.18;;
15012;SDS011;7603;49.432;11.418;2023-07-29T02:19:40;6.65;;;6.15;;
15012;SDS011;7603;49.432;11.418;2023-07-29T02:22:06;7.50;;;6.78;;
15012;SDS011;7603;49.432;11.418;2023-07-29T02:24:31;7.03;;;6.53;;
15012;SDS011;7603;49.432;11.418;2023-07-29T02:26:57;7.75;;;7.10;;
15012;SDS011;7603;49.432;11.418;2023-07-29T02:29:24;7.68;;;7.18;;
15012;SDS011;7603;49.432;11.418;2023-07-29T02:31:50;7.68;;;7.00;;
15012;SDS011;7603;49.432;11.418;2023-07-29T02:34:16;8.55;;;7.85;;
15012;SDS011;7603;49.432;11.418;2023-07-29T02:36:41;11.00;;;7.70;;
15012;SDS011;7603;49.432;11.418;2023-07-29T02:39:07;8.13;;;7.53;;
15012;SDS011;7603;49.432;11.418;2023-07-29T02:41:32;8.32;;;7.63;;
15012;SDS011;7603;49.432;11.418;2023-07-29T02:43:58;9.15;;;8.32;;
15012;SDS011;7603;49.432;11.418;2023-07-29T02:46:24;9.60;;;8.63;;
15012;SDS011;7603;49.432;11.418;2023-07-29T02:48:50;10.32;;;9.40;;
15012;SDS011;7603;49.432;11.418;2023-07-29T02:51:15;10.05;;;9.23;;
15012;SDS011;7603;49.432;11.418;2023-07-29T02:53:41;9.27;;;8.43;;
15012;SDS011;7603;49.432;11.418;2023-07-29T02:56:07;10.60;;;9.60;;
15012;SDS011;7603;49.432;11.418;2023-07-29T02:58:35;9.00;;;8.30;;
15012;SDS011;7603;49.432;11.418;2023-07-29T03:01:04;9.88;;;9.00;;
15012;SDS011;7603;49.432;11.418;2023-07-29T03:03:31;10.38;;;9.48;;
15012;SDS011;7603;49.432;11.418;2023-07-29T03:06:01;11.68;;;9.30;;
15012;SDS011;7603;49.432;11.418;2023-07-29T03:08:28;11.05;;;10.13;;
15012;SDS011;7603;49.432;11.418;2023-07-29T03:10:54;9.68;;;8.75;;
15012;SDS011;7603;49.432;11.418;2023-07-29T03:13:20;10.00;;;9.10;;
15012;SDS011;7603;49.432;11.418;2023-07-29T03:15:46;10.65;;;9.55;;
15012;SDS011;7603;49.432;11.418;2023-07-29T03:18:11;11.20;;;10.13;;
15012;SDS011;7603;49.432;11.418;2023-07-29T03:20:37;11.02;;;9.95;;
15012;SDS011;7603;49.432;11.418;2023-07-29T03:23:02;12.70;;;11.45;;
15012;SDS011;7603;49.432;11.418;2023-07-29T03:25:28;14.25;;;12.50;;
15012;SDS011;7603;49.432;11.418;2023-07-29T03:27:54;13.75;;;11.85;;
15012;SDS011;7603;49.432;11.418;2023-07-29T03:30:20;14.90;;;12.35;;
15012;SDS011;7603;49.432;11.418;2023-07-29T03:32:46;15.90;;;13.93;;
15012;SDS011;7603;49.432;11.418;2023-07-29T03:35:12;17.98;;;13.63;;
15012;SDS011;7603;49.432;11.418;2023-07-29T03:37:38;23.35;;;16.38;;
15012;SDS011;7603;49.432;11.418;2023-07-29T03:40:04;24.15;;;15.68;;
15012;SDS011;7603;49.432;11.418;2023-07-29T03:42:30;17.35;;;13.60;;
15012;SDS011;7603;49.432;11.418;2023-07-29T03:44:56;16.08;;;13.07;;
15012;SDS011;7603;49.432;11.418;2023-07-29T03:47:22;14.68;;;11.75;;
15012;SDS011;7603;49.432;11.418;2023-07-29T03:49:47;15.10;;;12.02;;
15012;SDS011;7603;49.432;11.418;2023-07-29T03:52:13;13.63;;;12.07;;
15012;SDS011;7603;49.432;11.418;2023-07-29T03:54:39;13.90;;;11.85;;
15012;SDS011;7603;49.432;11.418;2023-07-29T03:57:04;16.40;;;13.45;;
15012;SDS011;7603;49.432;11.418;2023-07-29T03:59:30;13.35;;;12.05;;
15012;SDS011;7603;49.432;11.418;2023-07-29T04:01:56;14.45;;;12.50;;
15012;SDS011;7603;49.432;11.418;2023-07-29T04:04:22;13.00;;;11.65;;
15012;SDS011;7603;49.432;11.418;2023-07-29T04:06:47;13.30;;;12.00;;
15012;SDS011;7603;49.432;11.418;2023-07-29T04:09:13;14.45;;;12.65;;
15012;SDS011;7603;49.432;11.418;2023-07-29T04:11:38;16.83;;;13.82;;
15012;SDS011;7603;49.432;11.418;2023-07-29T04:14:04;15.38;;;12.60;;
15012;SDS011;7603;49.432;11.418;2023-07-29T04:16:30;12.35;;;11.30;;
15012;SDS011;7603;49.432;11.418;2023-07-29T04:18:55;14.00;;;12.70;;
15012;SDS011;7603;49.432;11.418;2023-07-29T04:21:21;13.48;;;12.07;;
15012;SDS011;7603;49.432;11.418;2023-07-29T04:23:47;15.13;;;13.70;;
15012;SDS011;7603;49.432;11.418;2023-07-29T04:26:12;16.00;;;13.70;;
15012;SDS011;7603;49.432;11.418;2023-07-29T04:28:38;11.70;;;10.70;;
15012;SDS011;7603;49.432;11.418;2023-07-29T04:31:03;13.10;;;11.93;;
15012;SDS011;7603;49.432;11.418;2023-07-29T04:33:29;13.07;;;11.93;;
15012;SDS011;7603;49.432;11.418;2023-07-29T04:35:55;11.48;;;10.45;;
15012;SDS011;7603;49.432;11.418;2023-07-29T04:38:21;12.80;;;11.43;;
15012;SDS011;7603;49.432;11.418;2023-07-29T04:40:48;11.65;;;10.55;;
15012;SDS011;7603;49.432;11.418;2023-07-29T04:43:14;12.10;;;11.10;;
15012;SDS011;7603;49.432;11.418;2023-07-29T04:45:44;11.45;;;10.52;;
15012;SDS011;7603;49.432;11.418;2023-07-29T04:48:10;9.90;;;8.93;;
15012;SDS011;7603;49.432;11.418;2023-07-29T04:50:36;9.80;;;9.07;;
15012;SDS011;7603;49.432;11.418;2023-07-29T04:53:01;9.60;;;8.80;;
15012;SDS011;7603;49.432;11.418;2023-07-29T04:55:27;7.30;;;6.80;;
15012;SDS011;7603;49.432;11.418;2023-07-29T04:57:52;6.40;;;6.00;;
15012;SDS011;7603;49.432;11.418;2023-07-29T05:00:18;6.80;;;6.30;;
15012;SDS011;7603;49.432;11.418;2023-07-29T05:02:44;6.70;;;6.25;;
15012;SDS011;7603;49.432;11.418;2023-07-29T05:05:09;6.88;;;6.22;;
15012;SDS011;7603;49.432;11.418;2023-07-29T05:07:35;6.53;;;6.00;;
15012;SDS011;7603;49.432;11.418;2023-07-29T05:10:00;5.60;;;5.20;;
15012;SDS011;7603;49.432;11.418;2023-07-29T05:12:26;6.45;;;5.82;;
15012;SDS011;7603;49.432;11.418;2023-07-29T05:14:52;5.72;;;5.32;;
15012;SDS011;7603;49.432;11.418;2023-07-29T05:17:17;4.90;;;4.60;;
15012;SDS011;7603;49.432;11.418;2023-07-29T05:19:43;5.50;;;5.10;;
15012;SDS011;7603;49.432;11.418;2023-07-29T05:22:09;5.28;;;4.93;;
15012;SDS011;7603;49.432;11.418;2023-07-29T05:24:35;5.13;;;4.82;;
15012;SDS011;7603;49.432;11.418;2023-07-29T05:27:00;5.00;;;4.70;;
15012;SDS011;7603;49.432;11.418;2023-07-29T05:29:26;4.88;;;4.05;;
15012;SDS011;7603;49.432;11.418;2023-07-29T05:31:52;4.38;;;4.13;;
15012;SDS011;7603;49.432;11.418;2023-07-29T05:34:18;4.40;;;4.10;;
15012;SDS011;7603;49.432;11.418;2023-07-29T05:36:43;4.25;;;3.95;;
15012;SDS011;7603;49.432;11.418;2023-07-29T05:39:09;4.25;;;3.95;;
15012;SDS011;7603;49.432;11.418;2023-07-29T05:41:34;4.18;;;3.83;;
15012;SDS011;7603;49.432;11.418;2023-07-29T05:44:00;4.20;;;3.90;;
15012;SDS011;7603;49.432;11.418;2023-07-29T05:46:26;4.40;;;4.20;;
15012;SDS011;7603;49.432;11.418;2023-07-29T05:48:51;5.40;;;4.00;;
15012;SDS011;7603;49.432;11.418;2023-07-29T05:51:17;3.60;;;3.30;;
15012;SDS011;7603;49.432;11.418;2023-07-29T05:53:43;4.30;;;4.00;;
15012;SDS011;7603;49.432;11.418;2023-07-29T05:56:09;4.15;;;3.70;;
15012;SDS011;7603;49.432;11.418;2023-07-29T05:58:35;3.55;;;3.35;;
15012;SDS011;7603;49.432;11.418;2023-07-29T06:01:01;3.92;;;3.72;;
15012;SDS011;7603;49.432;11.418;2023-07-29T06:03:26;3.90;;;3.67;;
15012;SDS011;7603;49.432;11.418;2023-07-29T06:05:52;3.92;;;3.63;;
15012;SDS011;7603;49.432;11.418;2023-07-29T06:08:18;3.85;;;3.65;;
15012;SDS011;7603;49.432;11.418;2023-07-29T06:10:44;4.50;;;4.00;;
15012;SDS011;7603;49.432;11.418;2023-07-29T06:13:10;3.72;;;3.53;;
15012;SDS011;7603;49.432;11.418;2023-07-29T06:15:35;3.60;;;3.25;;
15012;SDS011;7603;49.432;11.418;2023-07-29T06:18:01;3.78;;;3.58;;
15012;SDS011;7603;49.432;11.418;2023-07-29T06:20:26;3.75;;;3.45;;
15012;SDS011;7603;49.432;11.418;2023-07-29T06:22:52;3.97;;;3.70;;
15012;SDS011;7603;49.432;11.418;2023-07-29T06:25:18;3.35;;;3.03;;
15012;SDS011;7603;49.432;11.418;2023-07-29T06:27:43;4.45;;;3.83;;
15012;SDS011;7603;49.432;11.418;2023-07-29T06:30:09;4.20;;;3.75;;
15012;SDS011;7603;49.432;11.418;2023-07-29T06:32:34;3.78;;;3.58;;
15012;SDS011;7603;49.432;11.418;2023-07-29T06:35:00;4.20;;;3.85;;
15012;SDS011;7603;49.432;11.418;2023-07-29T06:37:26;4.07;;;3.60;;
15012;SDS011;7603;49.432;11.418;2023-07-29T06:39:51;3.88;;;3.67;;
15012;SDS011;7603;49.432;11.418;2023-07-29T06:42:17;4.47;;;4.07;;
15012;SDS011;7603;49.432;11.418;2023-07-29T06:44:42;5.78;;;3.88;;
15012;SDS011;7603;49.432;11.418;2023-07-29T06:47:10;4.50;;;4.10;;
15012;SDS011;7603;49.432;11.418;2023-07-29T06:49:36;5.53;;;4.30;;
15012;SDS011;7603;49.432;11.418;2023-07-29T06:52:02;4.28;;;3.97;;
15012;SDS011;7603;49.432;11.418;2023-07-29T06:54:28;6.25;;;4.50;;
15012;SDS011;7603;49.432;11.418;2023-07-29T06:56:53;4.80;;;3.80;;
15012;SDS011;7603;49.432;11.418;2023-07-29T06:59:19;4.25;;;3.92;;
15012;SDS011;7603;49.432;11.418;2023-07-29T07:01:45;4.35;;;3.83;;
15012;SDS011;7603;49.432;11.418;2023-07-29T07:04:11;4.22;;;3.83;;
15012;SDS011;7603;49.432;11.418;2023-07-29T07:06:36;4.50;;;3.83;;
15012;SDS011;7603;49.432;11.418;2023-07-29T07:09:02;4.80;;;4.40;;
15012;SDS011;7603;49.432;11.418;2023-07-29T07:11:28;5.70;;;4.07;;
15012;SDS011;7603;49.432;11.418;2023-07-29T07:13:53;8.00;;;4.85;;
15012;SDS011;7603;49.432;11.418;2023-07-29T07:16:19;6.10;;;4.75;;
15012;SDS011;7603;49.432;11.418;2023-07-29T07:18:44;5.15;;;4.18;;
15012;SDS011;7603;49.432;11.418;2023-07-29T07:21:10;6.07;;;5.50;;
15012;SDS011;7603;49.432;11.418;2023-07-29T07:23:36;5.15;;;4.75;;
15012;SDS011;7603;49.432;11.418;2023-07-29T07:26:01;5.28;;;4.40;;
15012;SDS011;7603;49.432;11.418;2023-07-29T07:28:27;4.35;;;4.13;;
15012;SDS011;7603;49.432;11.418;2023-07-29T07:30:53;5.07;;;4.07;;
15012;SDS011;7603;49.432;11.418;2023-07-29T07:33:20;6.47;;;3.78;;
15012;SDS011;7603;49.432;11.418;2023-07-29T07:35:46;5.15;;;4.18;;
15012;SDS011;7603;49.432;11.418;2023-07-29T07:38:12;4.90;;;4.50;;
15012;SDS011;7603;49.432;11.418;2023-07-29T07:40:38;5.07;;;4.68;;
15012;SDS011;7603;49.432;11.418;2023-07-29T07:43:03;4.70;;;4.30;;
15012;SDS011;7603;49.432;11.418;2023-07-29T07:45:29;4.60;;;4.30;;
15012;SDS011;7603;49.432;11.418;2023-07-29T07:47:56;5.45;;;4.30;;
15012;SDS011;7603;49.432;11.418;2023-07-29T07:50:25;4.30;;;3.90;;
15012;SDS011;7603;49.432;11.418;2023-07-29T07:52:53;4.88;;;3.88;;
15012;SDS011;7603;49.432;11.418;2023-07-29T07:55:19;4.20;;;3.83;;
15012;SDS011;7603;49.432;11.418;2023-07-29T07:57:44;3.90;;;3.60;;
15012;SDS011;7603;49.432;11.418;2023-07-29T08:00:11;4.13;;;3.47;;
15012;SDS011;7603;49.432;11.418;2023-07-29T08:02:37;4.75;;;3.17;;
15012;SDS011;7603;49.432;11.418;2023-07-29T08:05:03;4.03;;;3.17;;
15012;SDS011;7603;49.432;11.418;2023-07-29T08:07:29;2.83;;;2.72;;
15012;SDS011;7603;49.432;11.418;2023-07-29T08:09:54;5.85;;;3.03;;
15012;SDS011;7603;49.432;11.418;2023-07-29T08:12:20;6.90;;;3.53;;
15012;SDS011;7603;49.432;11.418;2023-07-29T08:14:46;3.40;;;3.10;;
15012;SDS011;7603;49.432;11.418;2023-07-29T08:17:13;3.70;;;3.40;;
15012;SDS011;7603;49.432;11.418;2023-07-29T08:19:38;3.47;;;3.28;;
15012;SDS011;7603;49.432;11.418;2023-07-29T08:22:04;3.65;;;3.45;;
15012;SDS011;7603;49.432;11.418;2023-07-29T08:24:30;3.80;;;3.50;;
15012;SDS011;7603;49.432;11.418;2023-07-29T08:26:56;3.28;;;3.08;;
15012;SDS011;7603;49.432;11.418;2023-07-29T08:29:22;3.90;;;3.60;;
15012;SDS011;7603;49.432;11.418;2023-07-29T08:31:47;4.30;;;3.90;;
15012;SDS011;7603;49.432;11.418;2023-07-29T08:34:13;3.30;;;3.10;;
15012;SDS011;7603;49.432;11.418;2023-07-29T08:36:39;4.15;;;3.30;;
15012;SDS011;7603;49.432;11.418;2023-07-29T08:39:04;3.65;;;3.40;;
15012;SDS011;7603;49.432;11.418;2023-07-29T08:44:18;3.88;;;3.63;;
15012;SDS011;7603;49.432;11.418;2023-07-29T08:46:50;5.47;;;3.70;;
15012;SDS011;7603;49.432;11.418;2023-07-29T08:49:17;4.97;;;4.50;;
15012;SDS011;7603;49.432;11.418;2023-07-29T08:51:48;5.20;;;4.70;;
15012;SDS011;7603;49.432;11.418;2023-07-29T08:54:14;10.75;;;4.05;;
15012;SDS011;7603;49.432;11.418;2023-07-29T08:56:40;14.93;;;4.38;;
15012;SDS011;7603;49.432;11.418;2023-07-29T08:59:07;14.32;;;6.45;;
15012;SDS011;7603;49.432;11.418;2023-07-29T09:01:38;6.80;;;5.13;;
15012;SDS011;7603;49.432;11.418;2023-07-29T09:04:04;6.13;;;4.75;;
15012;SDS011;7603;49.432;11.418;2023-07-29T09:06:31;5.35;;;4.70;;
15012;SDS011;7603;49.432;11.418;2023-07-29T09:08:58;3.72;;;2.47;;
15012;SDS011;7603;49.432;11.418;2023-07-29T09:11:24;3.22;;;2.38;;
15012;SDS011;7603;49.432;11.418;2023-07-29T09:13:50;1.77;;;1.67;;
15012;SDS011;7603;49.432;11.418;2023-07-29T09:16:16;1.75;;;1.65;;
15012;SDS011;7603;49.432;11.418;2023-07-29T09:18:42;0.93;;;0.93;;
15012;SDS011;7603;49.432;11.418;2023-07-29T09:21:08;2.05;;;1.15;;
15012;SDS011;7603;49.432;11.418;2023-07-29T09:23:40;4.28;;;1.48;;
15012;SDS011;7603;49.432;11.418;2023-07-29T09:26:07;1.42;;;1.33;;
15012;SDS011;7603;49.432;11.418;2023-07-29T09:28:37;1.30;;;1.20;;
15012;SDS011;7603;49.432;11.418;2023-07-29T09:31:04;1.77;;;1.67;;
15012;SDS011;7603;49.432;11.418;2023-07-29T09:33:33;2.38;;;1.73;;
15012;SDS011;7603;49.432;11.418;2023-07-29T09:36:08;1.92;;;1.83;;
15012;SDS011;7603;49.432;11.418;2023-07-29T09:38:34;2.83;;;2.47;;
15012;SDS011;7603;49.432;11.418;2023-07-29T09:41:01;3.38;;;3.10;;
15012;SDS011;7603;49.432;11.418;2023-07-29T09:43:30;3.08;;;2.92;;
15012;SDS011;7603;49.432;11.418;2023-07-29T09:46:03;3.47;;;3.17;;
15012;SDS011;7603;49.432;11.418;2023-07-29T09:48:34;3.65;;;3.45;;
15012;SDS011;7603;49.432;11.418;2023-07-29T09:51:09;3.17;;;2.97;;
15012;SDS011;7603;49.432;11.418;2023-07-29T09:53:42;3.88;;;3.67;;
15012;SDS011;7603;49.432;11.418;2023-07-29T09:56:08;4.32;;;4.03;;
15012;SDS011;7603;49.432;11.418;2023-07-29T09:58:35;4.35;;;3.88;;
15012;SDS011;7603;49.432;11.418;2023-07-29T10:01:03;4.57;;;4.28;;
15012;SDS011;7603;49.432;11.418;2023-07-29T10:03:32;3.78;;;3.47;;
15012;SDS011;7603;49.432;11.418;2023-07-29T10:05:59;4.25;;;3.83;;
15012;SDS011;7603;49.432;11.418;2023-07-29T10:08:28;4.22;;;3.97;;
15012;SDS011;7603;49.432;11.418;2023-07-29T10:10:57;4.57;;;4.18;;
15012;SDS011;7603;49.432;11.418;2023-07-29T10:13:25;4.40;;;4.10;;
15012;SDS011;7603;49.432;11.418;2023-07-29T10:15:51;3.30;;;3.10;;
15012;SDS011;7603;49.432;11.418;2023-07-29T10:18:20;6.28;;;3.78;;
15012;SDS011;7603;49.432;11.418;2023-07-29T10:20:48;4.22;;;3.92;;
15012;SDS011;7603;49.432;11.418;2023-07-29T10:23:15;3.30;;;3.10;;
15012;SDS011;7603;49.432;11.418;2023-07-29T10:25:49;3.72;;;3.35;;
15012;SDS011;7603;49.432;11.418;2023-07-29T10:28:20;3.92;;;3.60;;
15012;SDS011;7603;49.432;11.418;2023-07-29T10:30:50;4.05;;;3.55;;
15012;SDS011;7603;49.432;11.418;2023-07-29T10:33:16;3.67;;;3.47;;
15012;SDS011;7603;49.432;11.418;2023-07-29T10:35:42;3.92;;;3.70;;
15012;SDS011;7603;49.432;11.418;2023-07-29T10:38:07;3.80;;;3.60;;
15012;SDS011;7603;49.432;11.418;2023-07-29T10:40:47;4.32;;;4.03;;
15012;SDS011;7603;49.432;11.418;2023-07-29T10:43:18;4.43;;;4.13;;
15012;SDS011;7603;49.432;11.418;2023-07-29T10:45:48;4.07;;;3.88;;
15012;SDS011;7603;49.432;11.418;2023-07-29T10:48:39;3.33;;;3.13;;
15012;SDS011;7603;49.432;11.418;2023-07-29T10:53:55;5.38;;;3.15;;
15012;SDS011;7603;49.432;11.418;2023-07-29T10:56:32;3.50;;;3.20;;
15012;SDS011;7603;49.432;11.418;2023-07-29T11:01:41;2.97;;;2.72;;
15012;SDS011;7603;49.432;11.418;2023-07-29T11:17:34;2.53;;;2.33;;
15012;SDS011;7603;49.432;11.418;2023-07-29T11:20:00;3.35;;;2.60;;
15012;SDS011;7603;49.432;11.418;2023-07-29T11:22:28;2.50;;;2.40;;
15012;SDS011;7603;49.432;11.418;2023-07-29T11:24:54;2.25;;;2.15;;
15012;SDS011;7603;49.432;11.418;2023-07-29T11:27:19;2.58;;;2.33;;
15012;SDS011;7603;49.432;11.418;2023-07-29T11:29:46;2.63;;;2.53;;
15012;SDS011;7603;49.432;11.418;2023-07-29T11:32:12;2.80;;;2.60;;
15012;SDS011;7603;49.432;11.418;2023-07-29T11:34:38;4.80;;;2.30;;
15012;SDS011;7603;49.432;11.418;2023-07-29T11:37:05;4.10;;;2.30;;
15012;SDS011;7603;49.432;11.418;2023-07-29T11:39:31;2.15;;;2.00;;
15012;SDS011;7603;49.432;11.418;2023-07-29T11:41:57;2.28;;;2.10;;
15012;SDS011;7603;49.432;11.418;2023-07-29T11:44:24;2.40;;;2.20;;
15012;SDS011;7603;49.432;11.418;2023-07-29T11:46:50;2.45;;;2.35;;
15012;SDS011;7603;49.432;11.418;2023-07-29T11:49:15;1.98;;;1.88;;
15012;SDS011;7603;49.432;11.418;2023-07-29T11:51:41;1.77;;;1.70;;
15012;SDS011;7603;49.432;11.418;2023-07-29T11:54:08;3.95;;;2.30;;
15012;SDS011;7603;49.432;11.418;2023-07-29T11:56:33;2.25;;;2.15;;
15012;SDS011;7603;49.432;11.418;2023-07-29T11:59:00;2.38;;;2.28;;
15012;SDS011;7603;49.432;11.418;2023-07-29T12:01:27;2.47;;;2.20;;
15012;SDS011;7603;49.432;11.418;2023-07-29T12:03:53;3.05;;;2.50;;
15012;SDS011;7603;49.432;11.418;2023-07-29T12:06:22;2.75;;;2.42;;
15012;SDS011;7603;49.432;11.418;2023-07-29T12:08:49;2.70;;;2.50;;
15012;SDS011;7603;49.432;11.418;2023-07-29T12:11:15;2.38;;;2.28;;
15012;SDS011;7603;49.432;11.418;2023-07-29T12:13:41;2.70;;;2.60;;
15012;SDS011;7603;49.432;11.418;2023-07-29T12:16:09;2.88;;;2.60;;
15012;SDS011;7603;49.432;11.418;2023-07-29T12:18:35;2.50;;;2.30;;
15012;SDS011;7603;49.432;11.418;2023-07-29T12:21:01;2.50;;;2.40;;
15012;SDS011;7603;49.432;11.418;2023-07-29T12:23:28;2.25;;;2.15;;
15012;SDS011;7603;49.432;11.418;2023-07-29T12:25:57;2.53;;;2.33;;
15012;SDS011;7603;49.432;11.418;2023-07-29T12:28:24;2.42;;;2.22;;
15012;SDS011;7603;49.432;11.418;2023-07-29T12:30:53;2.42;;;2.22;;
15012;SDS011;7603;49.432;11.418;2023-07-29T12:36:07;2.17;;;2.05;;
15012;SDS011;7603;49.432;11.418;2023-07-29T12:38:34;1.83;;;1.73;;
15012;SDS011;7603;49.432;11.418;2023-07-29T12:41:01;2.22;;;1.92;;
15012;SDS011;7603;49.432;11.418;2023-07-29T12:43:26;2.47;;;1.63;;
15012;SDS011;7603;49.432;11.418;2023-07-29T12:45:53;3.03;;;1.90;;
15012;SDS011;7603;49.432;11.418;2023-07-29T12:48:18;2.42;;;1.77;;
15012;SDS011;7603;49.432;11.418;2023-07-29T12:50:44;1.63;;;1.55;;
15012;SDS011;7603;49.432;11.418;2023-07-29T12:53:09;1.60;;;1.50;;
15012;SDS011;7603;49.432;11.418;2023-07-29T12:55:35;1.60;;;1.50;;
15012;SDS011;7603;49.432;11.418;2023-07-29T12:58:01;1.63;;;1.50;;
15012;SDS011;7603;49.432;11.418;2023-07-29T13:00:27;1.95;;;1.50;;
15012;SDS011;7603;49.432;11.418;2023-07-29T13:02:53;2.80;;;1.35;;
15012;SDS011;7603;49.432;11.418;2023-07-29T13:05:19;1.50;;;1.40;;
15012;SDS011;7603;49.432;11.418;2023-07-29T13:07:45;2.15;;;1.65;;
15012;SDS011;7603;49.432;11.418;2023-07-29T13:10:10;1.77;;;1.67;;
15012;SDS011;7603;49.432;11.418;2023-07-29T13:12:37;2.10;;;1.23;;
15012;SDS011;7603;49.432;11.418;2023-07-29T13:15:02;1.52;;;1.42;;
15012;SDS011;7603;49.432;11.418;2023-07-29T13:17:29;1.98;;;1.85;;
15012;SDS011;7603;49.432;11.418;2023-07-29T13:19:54;1.50;;;1.40;;
15012;SDS011;7603;49.432;11.418;2023-07-29T13:22:20;1.50;;;1.40;;
15012;SDS011;7603;49.432;11.418;2023-07-29T13:24:46;1.45;;;1.45;;
15012;SDS011;7603;49.432;11.418;2023-07-29T13:27:11;1.67;;;1.60;;
15012;SDS011;7603;49.432;11.418;2023-07-29T13:29:37;1.48;;;1.40;;
15012;SDS011;7603;49.432;11.418;2023-07-29T13:32:04;1.60;;;1.50;;
15012;SDS011;7603;49.432;11.418;2023-07-29T13:34:30;1.50;;;1.40;;
15012;SDS011;7603;49.432;11.418;2023-07-29T13:36:56;1.50;;;1.35;;
15012;SDS011;7603;49.432;11.418;2023-07-29T13:39:22;1.40;;;1.40;;
15012;SDS011;7603;49.432;11.418;2023-07-29T13:41:47;1.10;;;1.10;;
15012;SDS011;7603;49.432;11.418;2023-07-29T13:44:13;1.50;;;1.40;;
15012;SDS011;7603;49.432;11.418;2023-07-29T13:46:38;1.55;;;1.30;;
15012;SDS011;7603;49.432;11.418;2023-07-29T13:49:04;1.27;;;1.27;;
15012;SDS011;7603;49.432;11.418;2023-07-29T13:51:30;2.35;;;1.40;;
15012;SDS011;7603;49.432;11.418;2023-07-29T13:53:55;1.50;;;1.38;;
15012;SDS011;7603;49.432;11.418;2023-07-29T13:56:21;1.23;;;1.23;;
15012;SDS011;7603;49.432;11.418;2023-07-29T13:58:47;3.13;;;1.67;;
15012;SDS011;7603;49.432;11.418;2023-07-29T14:01:13;2.20;;;1.50;;
15012;SDS011;7603;49.432;11.418;2023-07-29T14:03:38;1.17;;;1.17;;
15012;SDS011;7603;49.432;11.418;2023-07-29T14:06:04;1.23;;;1.13;;
15012;SDS011;7603;49.432;11.418;2023-07-29T14:08:30;1.33;;;1.33;;
15012;SDS011;7603;49.432;11.418;2023-07-29T14:10:55;3.25;;;1.40;;
15012;SDS011;7603;49.432;11.418;2023-07-29T14:13:21;1.85;;;1.30;;
15012;SDS011;7603;49.432;11.418;2023-07-29T14:15:47;1.88;;;1.42;;
15012;SDS011;7603;49.432;11.418;2023-07-29T14:18:12;1.27;;;1.27;;
15012;SDS011;7603;49.432;11.418;2023-07-29T14:20:38;1.35;;;1.25;;
15012;SDS011;7603;49.432;11.418;2023-07-29T14:23:04;1.30;;;1.20;;
15012;SDS011;7603;49.432;11.418;2023-07-29T14:25:29;1.60;;;1.48;;
15012;SDS011;7603;49.432;11.418;2023-07-29T14:27:55;2.30;;;1.73;;
15012;SDS011;7603;49.432;11.418;2023-07-29T14:30:20;1.30;;;1.30;;
15012;SDS011;7603;49.432;11.418;2023-07-29T14:32:46;2.78;;;1.23;;
15012;SDS011;7603;49.432;11.418;2023-07-29T14:35:12;1.60;;;1.30;;
15012;SDS011;7603;49.432;11.418;2023-07-29T14:37:37;1.58;;;1.48;;
15012;SDS011;7603;49.432;11.418;2023-07-29T14:40:03;1.58;;;1.48;;
15012;SDS011;7603;49.432;11.418;2023-07-29T14:42:30;1.48;;;1.48;;
15012;SDS011;7603;49.432;11.418;2023-07-29T14:44:56;3.13;;;1.60;;
15012;SDS011;7603;49.432;11.418;2023-07-29T14:47:21;1.50;;;1.42;;
15012;SDS011;7603;49.432;11.418;2023-07-29T14:49:47;2.00;;;1.50;;
15012;SDS011;7603;49.432;11.418;2023-07-29T14:52:12;1.90;;;1.80;;
15012;SDS011;7603;49.432;11.418;2023-07-29T14:54:38;1.70;;;1.60;;
15012;SDS011;7603;49.432;11.418;2023-07-29T14:57:05;1.23;;;1.23;;
15012;SDS011;7603;49.432;11.418;2023-07-29T14:59:31;1.27;;;1.27;;
15012;SDS011;7603;49.432;11.418;2023-07-29T15:01:57;1.67;;;1.58;;
15012;SDS011;7603;49.432;11.418;2023-07-29T15:04:23;4.38;;;1.73;;
15012;SDS011;7603;49.432;11.418;2023-07-29T15:06:49;1.10;;;1.10;;
15012;SDS011;7603;49.432;11.418;2023-07-29T15:09:14;2.35;;;1.52;;
15012;SDS011;7603;49.432;11.418;2023-07-29T15:11:40;1.20;;;1.20;;
15012;SDS011;7603;49.432;11.418;2023-07-29T15:14:06;1.38;;;1.27;;